sensor_id;sensor_type;location;lat;lon;timestamp;pressure;altitude;pressure_sealevel;temperature;humidity
16100;BME280;8154;50.830;12.082;2023-04-24T01:56:47;98184.34;;;24.36;35.38
16100;BME280;8154;50.830;12.082;2023-04-24T01:59:15;98197.34;;;24.33;35.19
16100;BME280;8154;50.830;12.082;2023-04-24T02:01:44;98199.44;;;24.42;35.13
16100;BME280;8154;50.830;12.082;2023-04-24T02:04:11;98201.28;;;24.42;35.06
16100;BME280;8154;50.830;12.082;2023-04-24T02:06:37;98206.75;;;24.35;35.02
16100;BME280;8154;50.830;12.082;2023-04-24T02:09:04;98201.88;;;24.32;35.18
16100;BME280;8154;50.830;12.082;2023-04-24T02:11:30;98198.84;;;24.40;34.91
16100;BME280;8154;50.830;12.082;2023-04-24T02:13:56;98186.69;;;24.44;35.18
16100;BME280;8154;50.830;12.082;2023-04-24T02:16:23;98184.34;;;24.36;35.35
16100;BME280;8154;50.830;12.082;2023-04-24T02:18:49;98194.69;;;24.33;35.05
16100;BME280;8154;50.830;12.082;2023-04-24T02:21:15;98189.00;;;24.41;34.85
16100;BME280;8154;50.830;12.082;2023-04-24T02:23:43;98192.03;;;24.44;35.00
16100;BME280;8154;50.830;12.082;2023-04-24T02:26:09;98197.38;;;24.44;34.89
16100;BME280;8154;50.830;12.082;2023-04-24T02:28:37;98185.63;;;24.45;34.92
16100;BME280;8154;50.830;12.082;2023-04-24T02:31:03;98184.91;;;24.38;35.21
16100;BME280;8154;50.830;12.082;2023-04-24T02:33:29;98186.44;;;24.34;35.13
16100;BME280;8154;50.830;12.082;2023-04-24T02:35:55;98185.50;;;24.40;35.15
16100;BME280;8154;50.830;12.082;2023-04-24T02:38:22;98189.34;;;24.44;34.77
16100;BME280;8154;50.830;12.082;2023-04-24T02:40:48;98185.16;;;24.37;35.07
16100;BME280;8154;50.830;12.082;2023-04-24T02:43:14;98178.66;;;24.33;35.11
16100;BME280;8154;50.830;12.082;2023-04-24T02:45:41;98177.97;;;24.37;35.06
16100;BME280;8154;50.830;12.082;2023-04-24T02:48:07;98172.16;;;24.40;35.04
16100;BME280;8154;50.830;12.082;2023-04-24T02:50:34;98170.41;;;24.34;34.98
16100;BME280;8154;50.830;12.082;2023-04-24T02:53:00;98174.38;;;24.32;35.05
16100;BME280;8154;50.830;12.082;2023-04-24T02:55:26;98169.34;;;24.35;34.99
16100;BME280;8154;50.830;12.082;2023-04-24T07:58:47;98185.75;;;24.27;35.76
16100;BME280;8154;50.830;12.082;2023-04-24T08:01:13;98185.16;;;24.25;35.92
16100;BME280;8154;50.830;12.082;2023-04-24T08:03:39;98195.84;;;24.25;35.78
16100;BME280;8154;50.830;12.082;2023-04-24T08:06:06;98198.50;;;24.25;35.61
16100;BME280;8154;50.830;12.082;2023-04-24T08:08:32;98196.66;;;24.25;35.78
16100;BME280;8154;50.830;12.082;2023-04-24T08:10:58;98204.91;;;24.24;35.63
16100;BME280;8154;50.830;12.082;2023-04-24T08:13:24;98198.75;;;24.23;35.78
16100;BME280;8154;50.830;12.082;2023-04-24T08:15:51;98195.59;;;24.26;35.82
16100;BME280;8154;50.830;12.082;2023-04-24T08:18:17;98200.72;;;24.28;35.61
16100;BME280;8154;50.830;12.082;2023-04-24T08:20:43;98207.91;;;24.27;35.79
16100;BME280;8154;50.830;12.082;2023-04-24T08:23:11;98200.72;;;24.28;35.62
16100;BME280;8154;50.830;12.082;2023-04-24T08:25:37;98206.88;;;24.28;35.65
16100;BME280;8154;50.830;12.082;2023-04-24T08:28:05;98203.63;;;24.26;35.84
16100;BME280;8154;50.830;12.082;2023-04-24T08:30:32;98208.50;;;24.29;35.78
16100;BME280;8154;50.830;12.082;2023-04-24T08:32:58;98205.81;;;24.29;35.73
16100;BME280;8154;50.830;12.082;2023-04-24T08:35:24;98211.97;;;24.30;35.80
16100;BME280;8154;50.830;12.082;2023-04-24T08:37:50;98214.66;;;24.30;35.74
16100;BME280;8154;50.830;12.082;2023-04-24T08:40:16;98221.03;;;24.29;35.83
16100;BME280;8154;50.830;12.082;2023-04-24T08:42:43;98221.47;;;24.26;35.68
16100;BME280;8154;50.830;12.082;2023-04-24T08:45:13;98220.22;;;24.28;35.76
16100;BME280;8154;50.830;12.082;2023-04-24T08:47:52;98225.34;;;24.30;35.90
16100;BME280;8154;50.830;12.082;2023-04-24T08:50:21;98226.94;;;24.31;35.95
16100;BME280;8154;50.830;12.082;2023-04-24T08:52:50;98231.69;;;24.29;35.57
16100;BME280;8154;50.830;12.082;2023-04-24T08:55:24;98234.38;;;24.29;35.67
16100;BME280;8154;50.830;12.082;2023-04-24T08:57:52;98235.19;;;24.29;36.04
16100;BME280;8154;50.830;12.082;2023-04-24T09:00:19;98237.88;;;24.29;35.70
16100;BME280;8154;50.830;12.082;2023-04-24T09:02:49;98230.09;;;24.28;35.86
16100;BME280;8154;50.830;12.082;2023-04-24T09:05:17;98228.25;;;24.28;35.87
16100;BME280;8154;50.830;12.082;2023-04-24T09:07:46;98230.44;;;24.32;36.06
16100;BME280;8154;50.830;12.082;2023-04-24T09:10:25;98232.06;;;24.33;35.92
16100;BME280;8154;50.830;12.082;2023-04-24T09:12:52;98236.81;;;24.30;36.14
16100;BME280;8154;50.830;12.082;2023-04-24T09:15:19;98225.56;;;24.28;35.90
16100;BME280;8154;50.830;12.082;2023-04-24T09:17:46;98232.53;;;24.29;35.91
16100;BME280;8154;50.830;12.082;2023-04-24T09:20:13;98235.78;;;24.32;35.99
16100;BME280;8154;50.830;12.082;2023-04-24T09:22:40;98245.63;;;24.31;35.76
16100;BME280;8154;50.830;12.082;2023-04-24T09:25:08;98245.41;;;24.33;36.05
16100;BME280;8154;50.830;12.082;2023-04-24T09:27:35;98244.59;;;24.32;36.06
16100;BME280;8154;50.830;12.082;2023-04-24T09:30:21;98248.69;;;24.35;35.90
16100;BME280;8154;50.830;12.082;2023-04-24T09:32:48;98249.94;;;24.32;36.11
16100;BME280;8154;50.830;12.082;2023-04-24T09:35:18;98248.31;;;24.31;35.94
16100;BME280;8154;50.830;12.082;2023-04-24T09:37:46;98244.59;;;24.32;35.88
16100;BME280;8154;50.830;12.082;2023-04-24T09:40:17;98245.63;;;24.31;35.81
16100;BME280;8154;50.830;12.082;2023-04-24T09:42:55;98248.91;;;24.33;35.83
16100;BME280;8154;50.830;12.082;2023-04-24T09:45:27;98257.16;;;24.32;35.86
16100;BME280;8154;50.830;12.082;2023-04-24T09:47:55;98259.81;;;24.32;36.02
16100;BME280;8154;50.830;12.082;2023-04-24T09:50:21;98261.44;;;24.33;36.06
16100;BME280;8154;50.830;12.082;2023-04-24T09:52:57;98259.59;;;24.33;35.85
16100;BME280;8154;50.830;12.082;2023-04-24T09:55:24;98259.34;;;24.35;36.17
16100;BME280;8154;50.830;12.082;2023-04-24T14:01:38;98326.69;;;24.37;35.83
16100;BME280;8154;50.830;12.082;2023-04-24T14:04:04;98333.06;;;24.36;35.79
16100;BME280;8154;50.830;12.082;2023-04-24T14:06:30;98326.34;;;24.33;35.79
16100;BME280;8154;50.830;12.082;2023-04-24T14:08:57;98329.81;;;24.33;36.07
16100;BME280;8154;50.830;12.082;2023-04-24T14:11:23;98332.03;;;24.37;35.83
16100;BME280;8154;50.830;12.082;2023-04-24T14:13:50;98334.13;;;24.35;35.85
16100;BME280;8154;50.830;12.082;2023-04-24T14:16:16;98336.19;;;24.33;35.75
16100;BME280;8154;50.830;12.082;2023-04-24T14:18:43;98342.59;;;24.32;35.78
16100;BME280;8154;50.830;12.082;2023-04-24T14:21:11;98342.38;;;24.33;35.97
16100;BME280;8154;50.830;12.082;2023-04-24T14:23:38;98337.03;;;24.33;35.92
16100;BME280;8154;50.830;12.082;2023-04-24T14:26:04;98350.59;;;24.32;35.87
16100;BME280;8154;50.830;12.082;2023-04-24T14:28:31;98347.94;;;24.32;35.79
16100;BME280;8154;50.830;12.082;2023-04-24T14:30:56;98339.69;;;24.33;35.61
16100;BME280;8154;50.830;12.082;2023-04-24T14:33:23;98343.75;;;24.36;35.79
16100;BME280;8154;50.830;12.082;2023-04-24T14:35:49;98354.66;;;24.34;35.70
16100;BME280;8154;50.830;12.082;2023-04-24T14:38:15;98355.72;;;24.33;36.00
16100;BME280;8154;50.830;12.082;2023-04-24T14:40:46;98363.94;;;24.32;35.69
16100;BME280;8154;50.830;12.082;2023-04-24T14:43:12;98370.31;;;24.30;36.00
16100;BME280;8154;50.830;12.082;2023-04-24T14:45:39;98371.13;;;24.31;35.89
16100;BME280;8154;50.830;12.082;2023-04-24T14:48:08;98390.44;;;24.33;35.86
16100;BME280;8154;50.830;12.082;2023-04-24T14:50:35;98388.78;;;24.32;36.00
16100;BME280;8154;50.830;12.082;2023-04-24T14:53:01;98396.22;;;24.30;36.03
16100;BME280;8154;50.830;12.082;2023-04-24T14:55:33;98384.94;;;24.28;35.71
16100;BME280;8154;50.830;12.082;2023-04-24T14:58:02;98385.31;;;24.32;35.99
16100;BME280;8154;50.830;12.082;2023-04-24T15:00:29;98400.50;;;24.31;35.76
16100;BME280;8154;50.830;12.082;2023-04-24T15:02:55;98400.28;;;24.33;35.64
16100;BME280;8154;50.830;12.082;2023-04-24T15:05:25;98408.91;;;24.35;35.88
16100;BME280;8154;50.830;12.082;2023-04-24T15:07:51;98421.41;;;24.34;35.84
16100;BME280;8154;50.830;12.082;2023-04-24T15:10:18;98415.47;;;24.32;35.80
16100;BME280;8154;50.830;12.082;2023-04-24T15:12:45;98427.22;;;24.31;35.96
16100;BME280;8154;50.830;12.082;2023-04-24T15:15:12;98422.69;;;24.32;35.80
16100;BME280;8154;50.830;12.082;2023-04-24T15:17:38;98410.59;;;24.29;35.86
16100;BME280;8154;50.830;12.082;2023-04-24T15:20:10;98406.31;;;24.28;35.86
16100;BME280;8154;50.830;12.082;2023-04-24T15:22:36;98423.50;;;24.32;35.78
16100;BME280;8154;50.830;12.082;2023-04-24T15:25:03;98421.66;;;24.33;35.84
16100;BME280;8154;50.830;12.082;2023-04-24T15:27:39;98427.81;;;24.33;35.72
16100;BME280;8154;50.830;12.082;2023-04-24T15:30:06;98405.41;;;24.34;35.65
16100;BME280;8154;50.830;12.082;2023-04-24T15:32:33;98406.00;;;24.36;35.53
16100;BME280;8154;50.830;12.082;2023-04-24T15:34:59;98407.63;;;24.37;35.56
16100;BME280;8154;50.830;12.082;2023-04-24T15:37:27;98410.75;;;24.34;35.51
16100;BME280;8154;50.830;12.082;2023-04-24T15:39:54;98416.69;;;24.36;35.65
16100;BME280;8154;50.830;12.082;2023-04-24T15:42:21;98416.44;;;24.38;35.69
16100;BME280;8154;50.830;12.082;2023-04-24T15:44:48;98418.97;;;24.33;36.02
16100;BME280;8154;50.830;12.082;2023-04-24T15:47:14;98426.75;;;24.34;35.62
16100;BME280;8154;50.830;12.082;2023-04-24T15:49:40;98424.09;;;24.34;35.91
16100;BME280;8154;50.830;12.082;2023-04-24T15:52:07;98422.25;;;24.35;35.85
16100;BME280;8154;50.830;12.082;2023-04-24T15:54:36;98429.44;;;24.34;35.75
16100;BME280;8154;50.830;12.082;2023-04-24T15:57:06;98427.81;;;24.33;35.65
16100;BME280;8154;50.830;12.082;2023-04-24T15:59:33;98428.03;;;24.32;35.67
16100;BME280;8154;50.830;12.082;2023-04-24T17:03:18;98485.81;;;24.26;35.91
16100;BME280;8154;50.830;12.082;2023-04-24T17:05:45;98485.00;;;24.25;35.81
16100;BME280;8154;50.830;12.082;2023-04-24T17:08:12;98480.69;;;24.24;35.81
16100;BME280;8154;50.830;12.082;2023-04-24T17:10:38;98492.66;;;24.22;35.98
16100;BME280;8154;50.830;12.082;2023-04-24T17:13:06;98495.75;;;24.19;36.04
16100;BME280;8154;50.830;12.082;2023-04-24T17:15:35;98486.69;;;24.20;36.11
16100;BME280;8154;50.830;12.082;2023-04-24T17:18:01;98493.66;;;24.21;35.90
16100;BME280;8154;50.830;12.082;2023-04-24T17:20:29;98495.53;;;24.20;35.78
16100;BME280;8154;50.830;12.082;2023-04-24T17:22:55;98498.44;;;24.19;35.95
16100;BME280;8154;50.830;12.082;2023-04-24T17:25:23;98492.03;;;24.20;35.75
16100;BME280;8154;50.830;12.082;2023-04-24T17:27:50;98500.66;;;24.22;35.42
16100;BME280;8154;50.830;12.082;2023-04-24T17:30:16;98506.38;;;24.25;35.56
16100;BME280;8154;50.830;12.082;2023-04-24T17:32:44;98502.88;;;24.25;35.66
16100;BME280;8154;50.830;12.082;2023-04-24T17:35:11;98507.63;;;24.23;35.76
16100;BME280;8154;50.830;12.082;2023-04-24T17:37:39;98515.03;;;24.21;35.78
16100;BME280;8154;50.830;12.082;2023-04-24T17:40:08;98516.06;;;24.20;35.75
16100;BME280;8154;50.830;12.082;2023-04-24T17:42:40;98517.50;;;24.22;35.95
16100;BME280;8154;50.830;12.082;2023-04-24T17:45:07;98520.16;;;24.22;35.73
16100;BME280;8154;50.830;12.082;2023-04-24T17:47:36;98524.69;;;24.22;35.60
16100;BME280;8154;50.830;12.082;2023-04-24T17:50:03;98528.59;;;24.19;35.91
16100;BME280;8154;50.830;12.082;2023-04-24T17:52:29;98523.63;;;24.23;35.89
16100;BME280;8154;50.830;12.082;2023-04-24T17:54:55;98523.63;;;24.23;35.53
16100;BME280;8154;50.830;12.082;2023-04-24T17:57:21;98530.47;;;24.19;35.69
16100;BME280;8154;50.830;12.082;2023-04-24T17:59:47;98538.47;;;24.19;35.87
16100;BME280;8154;50.830;12.082;2023-04-24T18:02:13;98536.38;;;24.21;35.66
16100;BME280;8154;50.830;12.082;2023-04-24T18:04:42;98542.94;;;24.25;35.84
16100;BME280;8154;50.830;12.082;2023-04-24T18:07:09;98555.91;;;24.21;35.77
16100;BME280;8154;50.830;12.082;2023-04-24T18:09:35;98552.06;;;24.17;35.86
16100;BME280;8154;50.830;12.082;2023-04-24T18:12:02;98558.56;;;24.21;35.55
16100;BME280;8154;50.830;12.082;2023-04-24T18:14:29;98556.50;;;24.23;35.87
16100;BME280;8154;50.830;12.082;2023-04-24T18:16:57;98552.78;;;24.24;35.69
16100;BME280;8154;50.830;12.082;2023-04-24T18:19:25;98561.19;;;24.28;35.68
16100;BME280;8154;50.830;12.082;2023-04-24T18:21:52;98559.16;;;24.23;35.84
16100;BME280;8154;50.830;12.082;2023-04-24T18:24:21;98557.16;;;24.19;35.60
16100;BME280;8154;50.830;12.082;2023-04-24T18:26:48;98563.09;;;24.21;35.77
16100;BME280;8154;50.830;12.082;2023-04-24T18:29:34;98565.56;;;24.22;35.97
16100;BME280;8154;50.830;12.082;2023-04-24T18:32:03;98564.34;;;24.18;35.86
16100;BME280;8154;50.830;12.082;2023-04-24T18:34:29;98573.41;;;24.17;36.00
16100;BME280;8154;50.830;12.082;2023-04-24T18:36:56;98572.13;;;24.20;35.71
16100;BME280;8154;50.830;12.082;2023-04-24T18:39:22;98572.75;;;24.22;35.80
16100;BME280;8154;50.830;12.082;2023-04-24T18:41:49;98579.53;;;24.18;35.89
16100;BME280;8154;50.830;12.082;2023-04-24T18:44:14;98595.78;;;24.16;35.57
16100;BME280;8154;50.830;12.082;2023-04-24T18:46:41;98599.06;;;24.18;35.90
16100;BME280;8154;50.830;12.082;2023-04-24T18:49:07;98601.06;;;24.23;35.42
16100;BME280;8154;50.830;12.082;2023-04-24T18:51:36;98596.38;;;24.18;35.80
16100;BME280;8154;50.830;12.082;2023-04-24T18:54:04;98610.19;;;24.15;35.98
16100;BME280;8154;50.830;12.082;2023-04-24T18:56:31;98611.59;;;24.18;35.73
16100;BME280;8154;50.830;12.082;2023-04-24T18:58:58;98609.50;;;24.20;35.79
16100;BME280;8154;50.830;12.082;2023-04-24T19:01:29;98609.97;;;24.17;35.71
16100;BME280;8154;50.830;12.082;2023-04-24T19:04:00;98621.91;;;24.14;35.77
16100;BME280;8154;50.830;12.082;2023-04-24T19:06:27;98624.34;;;24.16;35.84
16100;BME280;8154;50.830;12.082;2023-04-24T19:08:55;98619.38;;;24.19;35.65
16100;BME280;8154;50.830;12.082;2023-04-24T19:11:22;98625.16;;;24.16;35.83
16100;BME280;8154;50.830;12.082;2023-04-24T19:13:48;98625.38;;;24.15;35.96
16100;BME280;8154;50.830;12.082;2023-04-24T19:16:14;98628.03;;;24.15;35.50
16100;BME280;8154;50.830;12.082;2023-04-24T19:18:44;98623.91;;;24.19;35.44
16100;BME280;8154;50.830;12.082;2023-04-24T19:21:11;98627.97;;;24.21;35.58
16100;BME280;8154;50.830;12.082;2023-04-24T19:23:39;98637.44;;;24.24;35.37
16100;BME280;8154;50.830;12.082;2023-04-24T19:26:06;98633.75;;;24.18;35.73
16100;BME280;8154;50.830;12.082;2023-04-24T19:28:34;98631.75;;;24.14;35.96
16100;BME280;8154;50.830;12.082;2023-04-24T19:31:00;98636.66;;;24.17;35.76
16100;BME280;8154;50.830;12.082;2023-04-24T19:33:27;98635.38;;;24.19;35.49
16100;BME280;8154;50.830;12.082;2023-04-24T19:35:53;98634.00;;;24.17;35.67
16100;BME280;8154;50.830;12.082;2023-04-24T19:38:20;98632.19;;;24.11;35.84
16100;BME280;8154;50.830;12.082;2023-04-24T19:40:47;98631.75;;;24.14;35.57
16100;BME280;8154;50.830;12.082;2023-04-24T19:43:13;98634.59;;;24.19;35.39
16100;BME280;8154;50.830;12.082;2023-04-24T19:45:52;98634.81;;;24.17;35.61
16100;BME280;8154;50.830;12.082;2023-04-24T19:48:25;98639.16;;;24.12;35.66
16100;BME280;8154;50.830;12.082;2023-04-24T19:50:57;98637.31;;;24.12;35.78
16100;BME280;8154;50.830;12.082;2023-04-24T19:53:24;98638.28;;;24.18;35.81
16100;BME280;8154;50.830;12.082;2023-04-24T19:55:52;98634.38;;;24.20;35.53
16100;BME280;8154;50.830;12.082;2023-04-24T19:58:19;98636.16;;;24.26;35.71
16100;BME280;8154;50.830;12.082;2023-04-24T20:00:45;98636.44;;;24.18;35.34
16100;BME280;8154;50.830;12.082;2023-04-24T20:03:12;98637.91;;;24.14;35.61
16100;BME280;8154;50.830;12.082;2023-04-24T20:05:39;98632.16;;;24.17;35.80
16100;BME280;8154;50.830;12.082;2023-04-24T20:08:05;98632.50;;;24.21;35.63
16100;BME280;8154;50.830;12.082;2023-04-24T20:10:34;98638.44;;;24.23;35.44
16100;BME280;8154;50.830;12.082;2023-04-24T20:13:02;98626.75;;;24.24;35.43
16100;BME280;8154;50.830;12.082;2023-04-24T20:15:29;98629.25;;;24.19;35.61
16100;BME280;8154;50.830;12.082;2023-04-24T20:17:58;98632.81;;;24.13;35.55
16100;BME280;8154;50.830;12.082;2023-04-24T21:19:41;98636.41;;;24.00;35.57
16100;BME280;8154;50.830;12.082;2023-04-24T21:22:07;98637.97;;;24.08;35.42
16100;BME280;8154;50.830;12.082;2023-04-24T21:24:38;98631.75;;;24.14;35.56
16100;BME280;8154;50.830;12.082;2023-04-24T21:27:05;98639.66;;;24.02;35.54
16100;BME280;8154;50.830;12.082;2023-04-24T21:29:32;98644.03;;;23.97;35.85
16100;BME280;8154;50.830;12.082;2023-04-24T21:32:00;98633.91;;;24.05;35.90
16100;BME280;8154;50.830;12.082;2023-04-24T21:34:26;98644.88;;;24.15;35.63
16100;BME280;8154;50.830;12.082;2023-04-24T21:37:17;98648.69;;;24.01;35.67
16100;BME280;8154;50.830;12.082;2023-04-24T21:39:43;98647.53;;;23.97;35.85
16100;BME280;8154;50.830;12.082;2023-04-24T21:42:09;98642.72;;;24.06;35.46
16100;BME280;8154;50.830;12.082;2023-04-24T21:44:36;98649.63;;;24.13;35.49
16100;BME280;8154;50.830;12.082;2023-04-24T21:47:03;98637.69;;;24.16;35.26
16100;BME280;8154;50.830;12.082;2023-04-24T21:49:29;98638.28;;;24.18;35.52
16100;BME280;8154;50.830;12.082;2023-04-24T21:51:55;98639.47;;;24.04;35.62
16100;BME280;8154;50.830;12.082;2023-04-24T21:54:21;98635.38;;;23.95;35.77
16100;BME280;8154;50.830;12.082;2023-04-24T21:56:47;98636.78;;;24.04;35.76
16100;BME280;8154;50.830;12.082;2023-04-24T21:59:13;98636.50;;;24.12;35.52
16100;BME280;8154;50.830;12.082;2023-04-24T22:01:39;98624.47;;;24.03;35.54
16100;BME280;8154;50.830;12.082;2023-04-24T22:04:06;98627.59;;;23.93;35.94
16100;BME280;8154;50.830;12.082;2023-04-24T22:06:32;98629.81;;;24.03;35.85
16100;BME280;8154;50.830;12.082;2023-04-24T22:09:00;98633.03;;;24.11;35.26
16100;BME280;8154;50.830;12.082;2023-04-24T22:11:27;98626.41;;;24.14;35.57
16100;BME280;8154;50.830;12.082;2023-04-24T22:13:54;98634.44;;;24.14;35.25
16100;BME280;8154;50.830;12.082;2023-04-24T22:16:22;98633.91;;;24.05;35.73
16100;BME280;8154;50.830;12.082;2023-04-24T22:18:48;98633.53;;;23.95;35.53
16100;BME280;8154;50.830;12.082;2023-04-24T22:21:19;98630.00;;;24.01;35.63
16100;BME280;8154;50.830;12.082;2023-04-24T22:23:46;98628.91;;;24.09;35.20
16100;BME280;8154;50.830;12.082;2023-04-24T22:26:13;98633.94;;;23.99;35.41
16100;BME280;8154;50.830;12.082;2023-04-24T22:28:38;98630.47;;;23.92;35.92
16100;BME280;8154;50.830;12.082;2023-04-24T22:31:05;98636.63;;;23.99;35.81
16100;BME280;8154;50.830;12.082;2023-04-24T22:33:32;98630.41;;;24.05;35.63
16100;BME280;8154;50.830;12.082;2023-04-24T22:35:59;98634.25;;;24.09;35.49
16100;BME280;8154;50.830;12.082;2023-04-24T22:38:26;98628.69;;;24.10;35.17
16100;BME280;8154;50.830;12.082;2023-04-24T22:40:53;98623.63;;;24.02;35.78
16100;BME280;8154;50.830;12.082;2023-04-24T22:43:19;98628.63;;;23.92;35.79
16100;BME280;8154;50.830;12.082;2023-04-24T22:45:45;98629.06;;;23.96;35.82
16100;BME280;8154;50.830;12.082;2023-04-24T22:48:12;98624.47;;;24.03;35.70
16100;BME280;8154;50.830;12.082;2023-04-24T22:50:39;98620.59;;;23.99;35.59
16100;BME280;8154;50.830;12.082;2023-04-24T22:53:05;98619.22;;;23.90;35.84
16100;BME280;8154;50.830;12.082;2023-04-24T22:55:31;98621.88;;;23.90;35.75
16100;BME280;8154;50.830;12.082;2023-04-24T22:57:57;98624.47;;;24.03;35.73
16100;BME280;8154;50.830;12.082;2023-04-24T23:00:25;98627.75;;;24.05;35.32
16100;BME280;8154;50.830;12.082;2023-04-24T23:02:52;98617.66;;;24.07;35.55
16100;BME280;8154;50.830;12.082;2023-04-24T23:05:18;98619.72;;;24.05;35.42
16100;BME280;8154;50.830;12.082;2023-04-24T23:07:46;98618.38;;;23.96;35.71
16100;BME280;8154;50.830;12.082;2023-04-24T23:10:32;98623.72;;;23.96;35.73
16100;BME280;8154;50.830;12.082;2023-04-24T23:13:00;98619.13;;;24.03;35.39
16100;BME280;8154;50.830;12.082;2023-04-24T23:15:26;98627.75;;;24.05;35.21
16100;BME280;8154;50.830;12.082;2023-04-24T23:17:52;98618.47;;;24.07;35.25
16100;BME280;8154;50.830;12.082;2023-04-24T23:20:20;98619.50;;;24.06;35.51
16100;BME280;8154;50.830;12.082;2023-04-24T23:22:48;98619.50;;;24.06;35.61
16100;BME280;8154;50.830;12.082;2023-04-24T23:25:14;98622.19;;;24.06;35.06
16100;BME280;8154;50.830;12.082;2023-04-24T23:27:45;98627.81;;;23.92;35.51
16100;BME280;8154;50.830;12.082;2023-04-24T23:30:11;98618.63;;;23.88;35.60
16100;BME280;8154;50.830;12.082;2023-04-24T23:32:38;98617.94;;;23.99;35.56
16100;BME280;8154;50.830;12.082;2023-04-24T23:35:04;98613.56;;;24.04;35.49
16100;BME280;8154;50.830;12.082;2023-04-24T23:37:31;98621.13;;;24.07;35.33
16100;BME280;8154;50.830;12.082;2023-04-24T23:39:57;98615.22;;;24.05;35.45
16100;BME280;8154;50.830;12.082;2023-04-24T23:42:23;98611.00;;;23.91;35.62
16100;BME280;8154;50.830;12.082;2023-04-24T23:44:49;98605.50;;;23.86;35.62
16100;BME280;8154;50.830;12.082;2023-04-24T23:47:15;98606.44;;;23.98;35.61
16100;BME280;8154;50.830;12.082;2023-04-24T23:49:41;98613.19;;;24.01;35.67
16100;BME280;8154;50.830;12.082;2023-04-24T23:52:12;98606.38;;;24.05;35.25
16100;BME280;8154;50.830;12.082;2023-04-24T23:54:38;98597.31;;;24.06;35.51
16100;BME280;8154;50.830;12.082;2023-04-24T23:57:06;98594.97;;;23.91;35.46
16100;BME280;8154;50.830;12.082;2023-04-24T23:59:32;98602.44;;;23.83;35.82
